LEPA/PMI METAR and TAF weather

Enter ICAO airport designator
Station Type Date Time Source
LEPA METAR 2020/07/14 06:00 UTC NOAA

LEPA 140600Z VRB02KT CAVOK 23/19 Q1016 NOSIG


Station Type Date Time Source
LEPA Decoded METAR 2020/07/14 06:00 UTC NOAA

Palma De Mallorca / Son San Juan, Spain (LEPA) 39-33N 002-44E 8M
Jul 14, 2020 - 02:00 AM EDT / 2020.07.14 0600 UTC
Wind: Variable at 2 MPH (2 KT):0
Visibility: greater than 7 mile(s):0
Temperature: 73 F (23 C)
Dew Point: 66 F (19 C)
Relative Humidity: 78%
Pressure (altimeter): 30.00 in. Hg (1016 hPa)
ob: LEPA 140600Z VRB02KT CAVOK 23/19 Q1016 NOSIG
cycle: 6

Station Type Date Time Source
LEPA TAF 2020/07/14 06:27 UTC NOAA

TAF TAF LEPA 140500Z 1406/1506 VRB03KT 9999 FEW030 TX32/1412Z TN20/1406Z
TEMPO 1407/1411 07010KT
BECMG 1410/1412 22013KT
BECMG 1417/1419 05010KT
BECMG 1422/1424 VRB03KT

Example: see airport list